createdAt,value
2022-11-05T00:01:59.467Z,19.37
2022-11-05T00:04:44.282Z,20.57
2022-11-05T00:07:36.614Z,21.07
2022-11-05T00:10:13.488Z,20.90
2022-11-05T00:12:58.691Z,20.70
2022-11-05T00:15:43.457Z,22.00
2022-11-05T00:18:09.759Z,21.40
2022-11-05T00:20:36.136Z,22.30
2022-11-05T00:23:22.391Z,21.03
2022-11-05T00:26:03.356Z,20.70
2022-11-05T00:28:30.854Z,19.13
2022-11-05T00:31:15.116Z,20.00
2022-11-05T00:33:42.875Z,19.50
2022-11-05T00:36:10.544Z,20.37
2022-11-05T00:38:37.038Z,20.17
2022-11-05T00:41:03.329Z,20.70
2022-11-05T00:43:48.069Z,20.60
2022-11-05T00:46:14.416Z,20.90
2022-11-05T00:48:59.160Z,21.73
2022-11-05T00:51:25.426Z,21.83
2022-11-05T00:53:51.727Z,20.83
2022-11-05T00:56:18.133Z,21.03
2022-11-05T00:58:44.491Z,19.10
2022-11-05T01:01:11.550Z,19.40
2022-11-05T01:03:39.580Z,20.17
2022-11-05T01:06:14.548Z,20.07
2022-11-05T01:08:43.212Z,19.80
2022-11-05T01:11:34.080Z,19.00
2022-11-05T01:14:02.000Z,18.87
2022-11-05T01:16:28.357Z,17.60
2022-11-05T01:18:54.650Z,18.47
2022-11-05T01:21:21.003Z,18.70
2022-11-05T01:23:47.355Z,18.30
2022-11-05T01:26:13.696Z,17.40
2022-11-05T01:28:40.176Z,17.97
2022-11-05T01:31:06.593Z,16.67
2022-11-05T01:33:33.027Z,16.63
2022-11-05T01:35:59.375Z,17.70
2022-11-05T01:38:25.650Z,17.97
2022-11-05T01:40:52.083Z,17.60
2022-11-05T01:43:23.582Z,16.80
2022-11-05T01:45:52.931Z,18.13
2022-11-05T01:48:31.881Z,16.57
2022-11-05T01:51:06.854Z,17.03
2022-11-05T01:53:47.395Z,16.70
2022-11-05T01:56:24.173Z,15.80
2022-11-05T01:59:08.755Z,16.93
2022-11-05T02:01:35.750Z,16.87
2022-11-05T02:04:06.782Z,17.03
2022-11-05T02:06:36.950Z,18.50
2022-11-05T02:09:07.108Z,16.93
2022-11-05T02:11:33.996Z,17.67
2022-11-05T02:14:00.683Z,16.80
2022-11-05T02:16:26.945Z,18.23
2022-11-05T02:19:05.120Z,17.60
2022-11-05T02:21:52.811Z,16.93
2022-11-05T02:24:49.721Z,17.33
2022-11-05T02:27:32.554Z,16.97
2022-11-05T02:30:05.172Z,17.30
2022-11-05T02:32:43.361Z,15.70
2022-11-05T02:35:41.577Z,17.40
2022-11-05T02:38:25.462Z,17.10
2022-11-05T02:41:08.538Z,17.37
2022-11-05T02:43:52.634Z,15.87
2022-11-05T02:46:29.541Z,17.40
2022-11-05T02:49:06.510Z,17.37
2022-11-05T02:51:49.879Z,17.10
2022-11-05T02:54:22.328Z,16.57
2022-11-05T02:56:53.189Z,17.87
2022-11-05T02:59:19.625Z,17.53
2022-11-05T03:01:47.487Z,15.67
2022-11-05T03:04:17.346Z,17.67
2022-11-05T03:07:22.245Z,16.33
2022-11-05T03:10:13.884Z,16.10
2022-11-05T03:12:47.293Z,16.33
2022-11-05T03:15:35.382Z,16.90
2022-11-05T03:18:43.165Z,15.83
2022-11-05T03:21:17.893Z,17.47
2022-11-05T03:23:55.211Z,18.13
2022-11-05T03:26:31.192Z,17.83
2022-11-05T03:29:08.679Z,17.80
2022-11-05T03:31:39.630Z,18.27
2022-11-05T03:34:08.628Z,16.20
2022-11-05T03:36:42.112Z,16.00
2022-11-05T03:39:14.069Z,17.90
2022-11-05T03:41:43.882Z,17.03
2022-11-05T03:44:14.795Z,16.40
2022-11-05T03:46:49.143Z,16.73
2022-11-05T03:49:27.651Z,16.17
2022-11-05T03:52:02.991Z,16.33
2022-11-05T03:54:29.725Z,16.73
2022-11-05T03:57:08.770Z,16.10
2022-11-05T03:59:46.447Z,16.43
2022-11-05T04:02:15.220Z,15.37
2022-11-05T04:04:42.082Z,16.70
2022-11-05T04:07:28.316Z,17.20
2022-11-05T04:10:13.014Z,16.90
2022-11-05T04:12:57.772Z,17.90
2022-11-05T04:15:24.677Z,18.00
2022-11-05T04:17:51.226Z,16.40
2022-11-05T04:20:35.912Z,17.00
2022-11-05T04:23:23.766Z,14.97
2022-11-05T04:25:50.426Z,18.03
2022-11-05T04:28:17.000Z,17.00
2022-11-05T04:30:44.460Z,15.13
2022-11-05T04:33:14.825Z,16.47
2022-11-05T04:35:43.775Z,16.07
2022-11-05T04:38:15.476Z,15.17
2022-11-05T04:40:41.894Z,16.30
2022-11-05T04:43:14.652Z,15.90
2022-11-05T04:45:41.907Z,15.37
2022-11-05T04:48:08.254Z,14.93
2022-11-05T04:50:35.108Z,15.30
2022-11-05T04:53:01.435Z,16.33
2022-11-05T04:55:28.382Z,15.77
2022-11-05T04:57:54.945Z,16.97
2022-11-05T05:00:23.079Z,16.90
2022-11-05T05:02:50.041Z,16.67
2022-11-05T05:05:16.655Z,16.30
2022-11-05T05:07:43.029Z,16.17
2022-11-05T05:10:10.778Z,16.17
2022-11-05T05:12:37.263Z,15.90
2022-11-05T05:15:04.288Z,16.33
2022-11-05T05:17:30.660Z,17.13
2022-11-05T05:20:15.566Z,16.57
2022-11-05T05:22:41.958Z,16.77
2022-11-05T05:25:08.451Z,14.87
2022-11-05T05:27:34.832Z,16.67
2022-11-05T05:30:01.183Z,14.70
2022-11-05T05:32:27.738Z,16.10
2022-11-05T05:34:54.070Z,16.33
2022-11-05T05:37:20.510Z,15.93
2022-11-05T05:39:47.775Z,17.03
2022-11-05T05:42:14.090Z,16.30
2022-11-05T05:44:40.480Z,15.63
2022-11-05T05:47:06.786Z,17.70
2022-11-05T05:49:33.079Z,17.20
2022-11-05T05:51:59.334Z,16.67
2022-11-05T05:54:31.760Z,17.50
2022-11-05T05:56:59.090Z,17.13
2022-11-05T05:59:25.400Z,16.00
2022-11-05T06:01:51.864Z,16.53
2022-11-05T06:04:18.304Z,16.87
2022-11-05T06:06:46.789Z,18.13
2022-11-05T06:09:13.992Z,17.50
2022-11-05T06:11:40.664Z,17.17
2022-11-05T06:14:10.257Z,18.23
2022-11-05T06:16:38.780Z,19.30
2022-11-05T06:19:06.367Z,18.33
2022-11-05T06:21:33.000Z,18.43
2022-11-05T06:24:00.545Z,18.30
2022-11-05T06:26:26.826Z,17.40
2022-11-05T06:28:53.147Z,18.20
2022-11-05T06:31:19.954Z,18.50
2022-11-05T06:33:47.223Z,21.20
2022-11-05T06:36:18.952Z,18.37
2022-11-05T06:38:45.376Z,20.13
2022-11-05T06:41:11.839Z,18.50
2022-11-05T06:43:38.624Z,19.67
2022-11-05T06:46:05.046Z,20.27
2022-11-05T06:48:31.375Z,20.33
2022-11-05T06:50:58.154Z,20.07
2022-11-05T06:53:25.045Z,19.23
2022-11-05T06:55:51.407Z,19.77
2022-11-05T06:58:17.863Z,19.63
2022-11-05T07:00:44.269Z,20.27
2022-11-05T07:03:12.301Z,18.63
2022-11-05T07:05:43.409Z,18.97
2022-11-05T07:08:09.751Z,19.70
2022-11-05T07:10:36.114Z,20.17
2022-11-05T07:13:06.754Z,20.20
2022-11-05T07:15:34.917Z,20.10
2022-11-05T07:18:01.574Z,21.53
2022-11-05T07:20:33.252Z,21.53
2022-11-05T07:23:06.170Z,20.30
2022-11-05T07:25:33.717Z,22.10
2022-11-05T07:28:00.731Z,20.20
2022-11-05T07:30:27.947Z,21.80
2022-11-05T07:32:54.611Z,21.53
2022-11-05T07:35:21.316Z,21.80
2022-11-05T07:37:50.007Z,21.87
2022-11-05T07:40:20.909Z,18.97
2022-11-05T07:42:50.285Z,19.43
2022-11-05T07:45:17.375Z,21.00
2022-11-05T07:47:58.142Z,20.70
2022-11-05T07:50:27.217Z,19.20
2022-11-05T07:52:53.838Z,22.57
2022-11-05T07:55:20.362Z,22.80
2022-11-05T07:57:48.859Z,22.40
2022-11-05T08:00:18.051Z,23.50
2022-11-05T08:02:44.723Z,23.27
2022-11-05T08:05:11.317Z,23.30
2022-11-05T08:07:37.625Z,23.93
2022-11-05T08:10:04.750Z,24.77
2022-11-05T08:12:32.293Z,25.83
2022-11-05T08:14:58.707Z,23.67
2022-11-05T08:17:25.046Z,24.70
2022-11-05T08:19:51.560Z,24.03
2022-11-05T08:22:17.927Z,24.07
2022-11-05T08:24:44.238Z,23.93
2022-11-05T08:27:10.509Z,25.83
2022-11-05T08:29:36.789Z,24.70
2022-11-05T08:32:03.210Z,25.27
2022-11-05T08:34:29.504Z,25.00
2022-11-05T08:36:55.779Z,24.77
2022-11-05T08:39:22.126Z,24.60
2022-11-05T08:41:48.591Z,23.63
2022-11-05T08:44:14.943Z,24.37
2022-11-05T08:46:41.787Z,24.20
2022-11-05T08:49:08.377Z,24.67
2022-11-05T08:51:34.830Z,24.97
2022-11-05T08:54:01.121Z,25.67
2022-11-05T08:56:27.415Z,26.00
2022-11-05T08:58:53.856Z,26.00
2022-11-05T09:01:20.304Z,22.97
2022-11-05T09:03:49.513Z,25.53
2022-11-05T09:06:15.804Z,24.70
2022-11-05T09:08:42.163Z,23.73
2022-11-05T09:11:08.504Z,25.23
2022-11-05T09:13:34.912Z,23.93
2022-11-05T09:16:01.283Z,24.60
2022-11-05T09:18:28.244Z,26.00
2022-11-05T09:20:54.608Z,22.10
2022-11-05T09:23:20.973Z,21.00
2022-11-05T09:25:47.631Z,22.07
2022-11-05T09:28:24.455Z,22.30
2022-11-05T09:30:52.643Z,21.30
2022-11-05T09:33:21.853Z,21.40
2022-11-05T09:35:48.301Z,20.40
2022-11-05T09:38:14.713Z,19.60
2022-11-05T09:41:04.374Z,19.40
2022-11-05T09:43:40.327Z,19.50
2022-11-05T09:46:13.059Z,19.40
2022-11-05T09:48:42.233Z,18.30
2022-11-05T09:51:17.965Z,18.90
2022-11-05T09:53:48.396Z,16.67
2022-11-05T09:56:30.462Z,16.03
2022-11-05T09:59:02.290Z,16.87
2022-11-05T10:01:35.791Z,16.47
2022-11-05T10:04:09.160Z,17.57
2022-11-05T10:06:41.756Z,17.60
2022-11-05T10:09:16.146Z,16.13
2022-11-05T10:11:48.155Z,14.90
2022-11-05T10:14:25.576Z,14.23
2022-11-05T10:17:01.445Z,15.80
2022-11-05T10:19:43.175Z,14.60
2022-11-05T10:22:16.430Z,13.50
2022-11-05T10:24:46.320Z,13.90
2022-11-05T10:27:35.418Z,15.00
2022-11-05T10:30:01.995Z,14.23
2022-11-05T10:32:33.747Z,14.00
2022-11-05T10:35:02.538Z,13.97
2022-11-05T10:37:30.480Z,14.03
2022-11-05T10:39:57.114Z,13.10
2022-11-05T10:42:42.085Z,13.87
2022-11-05T10:45:25.428Z,13.70
2022-11-05T10:48:13.017Z,11.70
2022-11-05T10:50:39.893Z,12.67
2022-11-05T10:53:20.602Z,12.17
2022-11-05T10:55:49.935Z,11.47
2022-11-05T10:58:16.191Z,11.30
2022-11-05T11:00:44.948Z,13.50
2022-11-05T11:03:42.366Z,12.47
2022-11-05T11:06:23.785Z,11.73
2022-11-05T11:08:52.222Z,11.53
2022-11-05T11:11:34.366Z,10.47
2022-11-05T11:14:14.028Z,11.50
2022-11-05T11:16:45.955Z,10.83
2022-11-05T11:19:38.725Z,10.47
2022-11-05T11:22:04.980Z,9.47
2022-11-05T11:24:41.341Z,8.40
2022-11-05T11:27:19.132Z,9.17
2022-11-05T11:29:50.904Z,9.50
2022-11-05T11:32:20.450Z,8.73
2022-11-05T11:34:52.114Z,9.47
2022-11-05T11:37:28.496Z,10.07
2022-11-05T11:40:12.956Z,9.70
2022-11-05T11:42:41.388Z,7.73
2022-11-05T11:45:18.067Z,8.97
2022-11-05T11:47:49.854Z,7.83
2022-11-05T11:50:33.491Z,8.30
2022-11-05T11:53:21.193Z,8.70
2022-11-05T11:55:59.543Z,9.17
2022-11-05T11:58:56.006Z,7.50
2022-11-05T12:01:53.112Z,6.60
2022-11-05T12:05:07.794Z,7.20
2022-11-05T12:07:47.949Z,6.70
2022-11-05T12:10:46.366Z,5.37
2022-11-05T12:13:18.742Z,5.30
2022-11-05T12:15:53.130Z,3.90
2022-11-05T12:18:33.967Z,3.10
2022-11-05T12:25:51.664Z,3.70
2022-11-05T12:28:36.065Z,3.10
2022-11-05T12:31:05.533Z,3.30
2022-11-05T12:33:45.650Z,3.17
2022-11-05T12:36:22.758Z,2.77
2022-11-05T12:39:24.139Z,3.00
2022-11-05T12:42:02.527Z,2.90
2022-11-05T12:44:36.516Z,2.80
2022-11-05T12:47:10.081Z,3.40
2022-11-05T12:49:46.604Z,3.80
2022-11-05T12:52:12.862Z,3.93
2022-11-05T12:55:09.168Z,4.40
2022-11-05T12:57:40.060Z,5.47
2022-11-05T13:00:18.618Z,4.83
2022-11-05T13:02:54.544Z,4.80
2022-11-05T13:05:41.541Z,4.90
2022-11-05T13:08:30.326Z,3.97
2022-11-05T13:11:10.215Z,4.30
2022-11-05T13:13:42.019Z,4.00
2022-11-05T13:16:30.683Z,4.97
2022-11-05T13:19:02.967Z,4.37
2022-11-05T13:21:30.508Z,3.70
2022-11-05T13:24:04.944Z,3.50
2022-11-05T13:27:10.868Z,3.57
2022-11-05T13:29:53.579Z,3.60
2022-11-05T13:32:31.796Z,3.83
2022-11-05T13:35:04.741Z,3.70
2022-11-05T13:37:54.806Z,3.97
2022-11-05T13:40:36.515Z,3.17
2022-11-05T13:43:12.365Z,3.30
2022-11-05T13:46:06.158Z,3.07
2022-11-05T13:48:51.891Z,2.80
2022-11-05T13:51:38.628Z,3.10
2022-11-05T13:54:36.664Z,3.60
2022-11-05T13:57:41.198Z,3.13
2022-11-05T14:00:16.912Z,3.57
2022-11-05T14:02:54.200Z,2.80
2022-11-05T14:05:31.384Z,3.10
2022-11-05T14:08:00.587Z,3.17
2022-11-05T14:10:43.091Z,3.13
2022-11-05T14:13:28.875Z,3.07
2022-11-05T14:16:00.055Z,3.03
2022-11-05T14:18:39.572Z,3.33
2022-11-05T14:21:28.778Z,3.23
2022-11-05T14:23:57.534Z,2.90
2022-11-05T14:26:29.683Z,3.03
2022-11-05T14:29:05.165Z,2.83
2022-11-05T14:32:07.001Z,3.00
2022-11-05T14:34:53.502Z,2.70
2022-11-05T14:37:24.218Z,2.70
2022-11-05T14:39:51.158Z,2.60
2022-11-05T14:42:24.471Z,2.97
2022-11-05T14:44:58.431Z,2.80
2022-11-05T14:47:28.673Z,3.13
2022-11-05T14:50:01.756Z,2.67
2022-11-05T14:52:28.778Z,2.60
2022-11-05T14:54:58.026Z,3.00
2022-11-05T14:57:42.454Z,2.87
2022-11-05T15:00:40.480Z,2.90
2022-11-05T15:03:33.696Z,4.70
2022-11-05T15:06:07.671Z,2.90
2022-11-05T15:08:54.232Z,3.00
2022-11-05T15:11:29.345Z,3.10
2022-11-05T15:13:55.596Z,2.80
2022-11-05T15:16:30.510Z,3.50
2022-11-05T15:18:58.115Z,3.67
2022-11-05T15:21:25.179Z,3.13
2022-11-05T15:23:56.688Z,3.40
2022-11-05T15:26:42.902Z,3.23
2022-11-05T15:29:22.143Z,3.37
2022-11-05T15:31:49.224Z,3.50
2022-11-05T15:34:19.448Z,3.90
2022-11-05T15:36:50.662Z,3.23
2022-11-05T15:39:29.331Z,3.50
2022-11-05T15:41:57.129Z,3.47
2022-11-05T15:44:32.895Z,3.07
2022-11-05T15:47:13.035Z,3.37
2022-11-05T15:49:54.439Z,3.80
2022-11-05T15:52:31.035Z,3.27
2022-11-05T15:55:25.349Z,3.47
2022-11-05T15:58:10.664Z,3.40
2022-11-05T16:00:37.458Z,3.97
2022-11-05T16:03:14.639Z,4.00
2022-11-05T16:05:46.307Z,4.07
2022-11-05T16:08:18.844Z,4.73
2022-11-05T16:10:51.654Z,5.20
2022-11-05T16:13:38.338Z,5.27
2022-11-05T16:16:13.999Z,4.23
2022-11-05T16:18:41.361Z,4.60
2022-11-05T16:21:15.919Z,5.10
2022-11-05T16:23:53.889Z,4.23
2022-11-05T16:27:00.618Z,4.60
2022-11-05T16:29:53.670Z,4.17
2022-11-05T16:32:30.797Z,4.30
2022-11-05T16:35:01.284Z,5.07
2022-11-05T16:37:32.343Z,5.13
2022-11-05T16:39:58.693Z,5.10
2022-11-05T16:42:26.018Z,5.10
2022-11-05T16:44:54.873Z,5.03
2022-11-05T16:47:22.442Z,4.53
2022-11-05T16:49:49.732Z,5.03
2022-11-05T16:52:16.505Z,4.30
2022-11-05T16:54:42.847Z,4.67
2022-11-05T16:57:26.891Z,5.00
2022-11-05T16:59:54.522Z,4.70
2022-11-05T17:02:21.327Z,4.90
2022-11-05T17:04:47.983Z,4.10
2022-11-05T17:07:14.408Z,4.90
2022-11-05T17:09:40.737Z,5.90
2022-11-05T17:12:07.122Z,5.97
2022-11-05T17:14:33.449Z,6.23
2022-11-05T17:17:01.094Z,5.23
2022-11-05T17:19:27.794Z,5.70
2022-11-05T17:21:54.198Z,6.10
2022-11-05T17:24:20.542Z,5.63
2022-11-05T17:26:46.986Z,5.60
2022-11-05T17:29:13.438Z,5.63
2022-11-05T17:31:40.852Z,5.50
2022-11-05T17:34:08.780Z,5.97
2022-11-05T17:36:35.199Z,5.73
2022-11-05T17:39:01.658Z,6.73
2022-11-05T17:41:28.093Z,5.97
2022-11-05T17:43:56.595Z,6.13
2022-11-05T17:46:23.540Z,5.37
2022-11-05T17:48:50.063Z,5.83
2022-11-05T17:51:18.492Z,5.73
2022-11-05T17:53:47.351Z,5.87
2022-11-05T17:56:24.596Z,5.57
2022-11-05T17:58:55.775Z,6.10
2022-11-05T18:01:34.582Z,6.23
2022-11-05T18:04:07.175Z,6.10
2022-11-05T18:06:35.512Z,6.27
2022-11-05T18:09:02.089Z,5.77
2022-11-05T18:11:28.435Z,6.53
2022-11-05T18:13:54.828Z,6.10
2022-11-05T18:16:21.196Z,6.10
2022-11-05T18:18:49.127Z,6.30
2022-11-05T18:21:15.702Z,6.83
2022-11-05T18:23:42.487Z,6.70
2022-11-05T18:26:13.885Z,6.83
2022-11-05T18:28:40.417Z,6.70
2022-11-05T18:31:20.536Z,6.63
2022-11-05T18:33:48.172Z,7.53
2022-11-05T18:36:19.083Z,8.83
2022-11-05T18:38:45.787Z,8.00
2022-11-05T18:41:12.136Z,8.83
2022-11-05T18:43:38.418Z,7.90
2022-11-05T18:46:06.066Z,7.90
2022-11-05T18:48:32.401Z,8.60
2022-11-05T18:51:01.818Z,8.73
2022-11-05T18:53:28.586Z,8.70
2022-11-05T18:55:54.938Z,8.80
2022-11-05T18:58:21.272Z,8.77
2022-11-05T19:00:47.656Z,9.97
2022-11-05T19:03:13.971Z,9.33
2022-11-05T19:05:40.259Z,9.90
2022-11-05T19:08:06.646Z,10.13
2022-11-05T19:10:33.212Z,9.80
2022-11-05T19:12:59.560Z,10.23
2022-11-05T19:15:25.995Z,10.43
2022-11-05T19:17:52.276Z,10.70
2022-11-05T19:20:18.633Z,11.33
2022-11-05T19:22:44.954Z,10.50
2022-11-05T19:25:11.777Z,10.77
2022-11-05T19:27:38.584Z,10.90
2022-11-05T19:30:05.334Z,10.90
2022-11-05T19:32:31.647Z,10.30
2022-11-05T19:34:57.996Z,10.67
2022-11-05T19:37:24.292Z,10.43
2022-11-05T19:39:50.639Z,10.50
2022-11-05T19:42:16.961Z,11.07
2022-11-05T19:44:43.689Z,9.83
2022-11-05T19:47:10.239Z,10.50
2022-11-05T19:49:36.560Z,10.13
2022-11-05T19:52:02.867Z,10.43
2022-11-05T19:54:29.238Z,10.47
2022-11-05T19:56:55.611Z,10.13
2022-11-05T19:59:21.910Z,10.10
2022-11-05T20:01:48.418Z,10.50
2022-11-05T20:04:15.213Z,10.80
2022-11-05T20:06:41.559Z,10.57
2022-11-05T20:09:27.144Z,10.80
2022-11-05T20:11:56.092Z,10.80
2022-11-05T20:14:24.371Z,11.17
2022-11-05T20:16:51.234Z,10.90
2022-11-05T20:19:20.823Z,10.27
2022-11-05T20:21:47.716Z,11.00
2022-11-05T20:24:24.915Z,10.33
2022-11-05T20:26:53.563Z,10.77
2022-11-05T20:29:20.016Z,10.40
2022-11-05T20:31:46.486Z,10.27
2022-11-05T20:34:12.857Z,10.40
2022-11-05T20:36:39.448Z,10.90
2022-11-05T20:39:05.829Z,11.90
2022-11-05T20:41:33.171Z,11.20
2022-11-05T20:43:59.549Z,10.87
2022-11-05T20:46:25.881Z,10.37
2022-11-05T20:48:53.859Z,11.23
2022-11-05T20:51:22.498Z,9.87
2022-11-05T20:53:49.283Z,11.27
2022-11-05T20:56:22.548Z,11.17
2022-11-05T20:58:49.296Z,11.03
2022-11-05T21:01:16.750Z,10.60
2022-11-05T21:03:45.170Z,11.27
2022-11-05T21:06:11.922Z,11.00
2022-11-05T21:08:38.287Z,11.03
2022-11-05T21:11:05.199Z,10.80
2022-11-05T21:13:31.565Z,11.17
2022-11-05T21:15:59.693Z,11.00
2022-11-05T21:18:28.401Z,10.60
2022-11-05T21:20:55.619Z,11.60
2022-11-05T21:23:21.935Z,10.90
2022-11-05T21:25:48.309Z,11.63
2022-11-05T21:28:16.096Z,11.43
2022-11-05T21:30:47.559Z,11.13
2022-11-05T21:33:15.378Z,11.73
2022-11-05T21:35:46.695Z,11.37
2022-11-05T21:38:15.654Z,12.67
2022-11-05T21:40:42.442Z,12.50
2022-11-05T21:43:09.029Z,11.57
2022-11-05T21:45:38.727Z,11.20
2022-11-05T21:48:05.512Z,11.37
2022-11-05T21:50:50.220Z,11.87
2022-11-05T21:53:35.971Z,10.73
2022-11-05T21:56:25.824Z,10.70
2022-11-05T21:59:10.635Z,12.73
2022-11-05T22:01:37.028Z,11.53
2022-11-05T22:04:03.564Z,11.73
2022-11-05T22:06:32.779Z,11.60
2022-11-05T22:08:59.182Z,10.03
2022-11-05T22:11:25.560Z,11.23
2022-11-05T22:13:52.609Z,10.30
2022-11-05T22:16:18.872Z,10.73
2022-11-05T22:18:45.163Z,11.60
2022-11-05T22:21:18.496Z,10.27
2022-11-05T22:23:44.870Z,10.77
2022-11-05T22:26:11.243Z,10.33
2022-11-05T22:28:37.543Z,10.70
2022-11-05T22:31:03.873Z,11.17
2022-11-05T22:33:30.971Z,10.80
2022-11-05T22:35:57.275Z,11.37
2022-11-05T22:38:23.563Z,10.53
2022-11-05T22:40:49.854Z,10.57
2022-11-05T22:43:16.173Z,10.50
2022-11-05T22:45:43.734Z,11.00
2022-11-05T22:48:10.405Z,10.53
2022-11-05T22:50:37.066Z,12.30
2022-11-05T22:53:03.524Z,10.60
2022-11-05T22:55:29.806Z,10.97
2022-11-05T22:57:56.256Z,11.00
2022-11-05T23:00:34.415Z,10.43
2022-11-05T23:03:01.269Z,10.40
2022-11-05T23:05:27.799Z,10.97
2022-11-05T23:08:12.865Z,9.77
2022-11-05T23:10:58.398Z,10.40
2022-11-05T23:13:24.691Z,10.50
2022-11-05T23:16:09.405Z,9.90
2022-11-05T23:18:54.124Z,10.10
2022-11-05T23:21:38.995Z,9.70
2022-11-05T23:24:05.868Z,9.10
2022-11-05T23:26:52.466Z,10.70
2022-11-05T23:29:23.456Z,10.50
2022-11-05T23:32:09.226Z,9.77
2022-11-05T23:34:36.334Z,10.10
2022-11-05T23:37:21.862Z,9.60
2022-11-05T23:39:48.250Z,9.50
2022-11-05T23:42:32.945Z,9.27
2022-11-05T23:45:17.701Z,9.60
2022-11-05T23:48:02.976Z,8.30
2022-11-05T23:50:33.221Z,9.00
2022-11-05T23:53:03.448Z,8.07
2022-11-05T23:55:30.393Z,7.90
2022-11-05T23:57:56.780Z,8.70
